Monee, IL (60449)

2:58 AM CDT on September 01, 2014 (GMT -0500)
The Sommerfelds | Change Station
CLOSE
Current Station
Personal Weather Station
Location: Peotone, IL
Elevation: 715 ft
Nearby Weather Stations

Elev 715 ft 41.33 °N, 87.79 °W | Updated 2 seconds ago

Clear
Clear
70.3 °F
Feels Like 70.3 °F
N
1.1
Wind Variable Wind from South
Gusts 10.3 mph

Today
High -- | Low -- °F
--% Chance of Precip.
Yesterday
High -- | Low -- °F
Precip. -- in
6:17 AM 7:24 PM
Waxing Crescent, 38% visible
Pressure 29.84 in
Visibility 7.0 miles
Clouds Clear
Dew Point 69 °F
Humidity 95%
Rainfall 0.00 in
Snow Depth Not available.
UV 0.0 out of 12
Pollen 8.60 out of 12
Ozone Good
PM2.5 Moderate
Flu Activity Not available.
METAR KLOT 010735Z AUTO 19006KT 7SM CLR 22/21 A2984 RMK AO2 T02160213

More Conditions Fewer Conditions

Pressure 29.84 in
Visibility 7.0 miles
Clouds Clear
Dew Point 69 °F
Humidity 95%
Rainfall 0.00 in
Snow Depth Not available.
UV 0.0 out of 12
Pollen 8.60 out of 12
Ozone Good
PM2.5 Moderate
Flu Activity Not available.
METAR KLOT 010735Z AUTO 19006KT 7SM CLR 22/21 A2984 RMK AO2 T02160213

More Conditions Fewer Conditions

10-Day Weather Forecast

Almanac

Astronomy

Sep. 01, 2014 Rise Set
Actual Time 6:17 AM CDT 7:24 PM CDT
Civil Twilight 5:48 AM CDT 7:52 PM CDT
Nautical Twilight 5:14 AM CDT 8:26 PM CDT
Astronomical Twilight 4:39 AM CDT 9:01 PM CDT
Moon 1:07 PM CDT 11:20 PM CDT
Length of Visible Light 14h 03m
Length of Day
13h 06m
Tomorrow will be 2m 40s shorter.
Waxing Crescent, 38% of the Moon is Illuminated
Today
Waxing Crescent
Sep 2
First Quarter
Sep 8
Full
Sep 15
Last Quarter
Sep 24
New

Today's Extremes

State Highs State Lows

Community

WunderPhotos

Upload Photos

1,749,154 photos uploaded!

Nearby

Air Quality

  Air Quality AQ Index Pollutant
Yesterday Moderate
PM2.5
Yesterday Good
OZONE
Current Moderate
PM2.5
Current Good
OZONE
Monday Moderate
PM2.5
Monday Good
OZONE
Tuesday Good
OZONE
Tuesday Good
PM2.5

Snow Depth

Station Depth Elevation
No new snow has been reported.

Earthquake Activity

City Distance Mag. Time & Date
No recent earthquake activity has been reported nearby.
Minimum magnitude displayed is 2.5.

Coastal Water Temperatures

Place Temperature
No Stations Reporting

Nearby Weather Stations